Aircraft
UPR1004 PR-AED A330
SBKP
Viracopos International Airport
SBCF
Tancredo Neves International Airport
Pilot:: Jair
Aircraft:: A330-300 (GE)
Alternate: SBBR
Network: ivao
FLIGHT DETAILS
Distance: 269nm Duration 00h 54m
Cruise Speed: Flight Level: 22000
Validation: Validated Type Charter
Flight Fuel
ZFW: 151205
Block Fuel/Initial FOB: 39634
Flight Fuel: 7435
Cargo
Passengers: 320
Cargo: 10200
ROUTE
ROUTE: sbkp dct sbcf
REMARKS:
DATE
Date: 26-05-04
Departure Time: 1047
Cargo: 10200
FLIGHT DETAILS
Crashed: No
Validator Comments: Validado por Claudenir
Flight Rating: 100
LANDING ANALYSIS
Landing wind: 144º/5 kt
Landing heading: 161º
Landing VS:: -117 ft/min
Landing IAS:: 143 kt
Landing Force G: 1 G
Landing Bank: -1
Landing Pitch: -5
Landing Flaps: 100
Navigation Lights: ON
Landing Lights: ON
Beacon Lights: ON
Strobe Lights: ON
viserfly

ALTITUDE CHART

viserfly

MAIN EVENTS

DATE EVENT IAS ALTITUDE
2026-05-04 10:41:03 FLYacars version 1.3.4 4 2161
2026-05-04 10:41:04 Aircraft boarding in progress 4 2161
2026-05-04 10:41:04 Navigation Lights ON 4 2161
2026-05-04 10:41:04 Beacon Lights ON 4 2161
2026-05-04 10:41:04 Taxi Lights ON 4 2161
2026-05-04 10:41:04 Starting Engine 2 4 2161
2026-05-04 10:41:04 Starting Engine 1 4 2161
2026-05-04 10:41:32 Landing Lights ON 4 2161
2026-05-04 10:41:35 Landing Lights OFF 4 2161
2026-05-04 10:42:20 Aircraft taxiing to runway 6 2161
2026-05-04 10:46:42 Landing Lights ON 15 2160
2026-05-04 10:47:02 FLAPS 25% 40 2159
2026-05-04 10:47:03 FLAPS 50% 43 2159
2026-05-04 10:47:05 FLAPS 25% 53 2160
2026-05-04 10:47:32 Detected Take-off roll, HDG 155, IAS 156kt, GS 157kt, G-force 1.0g, Pitch -5.4deg, Bank -0.4deg, Wind 110/06kt, Temp 15°C 156 2163
2026-05-04 10:47:32 Airborne 156 2163
2026-05-04 10:47:33 Incorrect altimeter settings on takeoff 156 2163
2026-05-04 10:47:41 Taxi Lights OFF 173 2295
2026-05-04 10:47:53 Gear UP, IAS 185kt, GS 184kt, ALT 688ft AGL 185 2804
2026-05-04 10:49:15 FLAPS 0% 233kt, ALT 5072ft 233 5072
2026-05-04 10:51:22 Landing Lights OFF 250 10543
2026-05-04 10:52:01 Strobe Lights ON 286 11282
2026-05-04 10:58:08 Aircraft on Top Of Climb at 22785ft, IAS 296kt, GS 446kt, HDG 57deg, TAT -17deg, WIND 260/39kt 296 22785
2026-05-04 11:11:10 Aircraft on Top Of Descent at 21499ft, IAS 281kt, GS 410kt, HDG 57deg, TAT -12deg, WIND 267/30kt 281 21499
2026-05-04 11:24:26 Landing Lights ON 199 10307
2026-05-04 11:29:08 FLAPS 25% 193kt, ALT 5817ft 193 5817
2026-05-04 11:29:16 FLAPS 50% 187kt, ALT 5794ft 187 5794
2026-05-04 11:32:32 FLAPS 75% 164kt, ALT 5315ft 164 5315
2026-05-04 11:32:49 Gear DOWN, IAS 167kt, GS 171kt, ALT 2616ft AGL 167 5313
2026-05-04 11:32:56 Taxi Lights ON 165 5314
2026-05-04 11:38:19 FLAPS 100% 161kt, ALT 4368ft 161 4368
2026-05-04 11:42:01 Landed at destination with a landing rate of -117fpm, G-force 1.0g, Pitch -4.6deg, Bank -0.5deg, HDG 161deg, IAS 143kt, GS 147kt, Wind 144/05kt, Temp 18°C 143 2758
2026-05-04 11:42:01 Incorrect altimeter settings on landing 143 2758
2026-05-04 11:42:40 Landing Lights OFF 35 2755
2026-05-04 11:42:40 Taxi speed above 25kt 35 2755
2026-05-04 11:42:49 FLAPS 75% 30 2755
2026-05-04 11:42:49 FLAPS 0% 30 2755
2026-05-04 11:42:55 Aircraft taxiing to apron 28 2755
2026-05-04 11:48:36 Strobe Lights OFF 0 2756
2026-05-04 11:48:38 Beacon Lights OFF 0 2756
2026-05-04 11:48:40 Taxi Lights OFF 0 2756
2026-05-04 11:48:46 Aircraft at gate/stand, ground services are moving into position, disembarkation has begun. Remaining FOB 32199kg FLYacars v1.3.4 0 2756
viserfly

ACARS DATA

DATE IAS GS ALTITUDE FUEL CONSUMED OAT FLIGHT STATUS
2026-05-04 10:41:33 4 0 2161 44 15 BOARDING
2026-05-04 10:42:03 4 0 2161 68 15 BOARDING
2026-05-04 10:42:33 5 8 2161 98 15 TAXI TO RUNWAY
2026-05-04 10:43:03 5 12 2161 117 15 TAXI TO RUNWAY
2026-05-04 10:43:33 12 11 2161 136 15 TAXI TO RUNWAY
2026-05-04 10:44:03 15 14 2161 155 15 TAXI TO RUNWAY
2026-05-04 10:44:33 17 16 2161 175 15 TAXI TO RUNWAY
2026-05-04 10:45:03 18 18 2161 193 15 TAXI TO RUNWAY
2026-05-04 10:45:33 13 11 2161 213 15 TAXI TO RUNWAY
2026-05-04 10:46:03 7 6 2161 231 15 TAXI TO RUNWAY
2026-05-04 10:46:33 13 8 2160 251 15 TAXI TO RUNWAY
2026-05-04 10:47:03 43 40 2159 290 15 TAXI TO RUNWAY
2026-05-04 10:47:33 158 160 2167 433 15 TAKEOFF
2026-05-04 10:48:03 173 177 3509 573 15 INITIAL CLIMB
2026-05-04 10:48:33 186 194 4378 696 15 INITIAL CLIMB
2026-05-04 10:49:03 224 233 4807 810 15 CLIMB
2026-05-04 10:49:33 246 262 5566 921 14 CLIMB
2026-05-04 10:50:03 248 273 6935 1035 12 CLIMB
2026-05-04 10:50:33 248 284 8346 1146 10 CLIMB
2026-05-04 10:51:03 248 295 9724 1257 7 CLIMB
2026-05-04 10:51:33 259 316 10820 1371 5 CLIMB
2026-05-04 10:52:03 288 354 11332 1483 4 CLIMB
2026-05-04 10:52:33 295 370 12339 1591 2 CLIMB
2026-05-04 10:53:03 296 380 13493 1700 0 CLIMB
2026-05-04 10:53:33 296 389 14591 1803 -1 CLIMB
2026-05-04 10:54:03 296 397 15664 1906 -2 CLIMB
2026-05-04 10:54:33 297 404 16712 2009 -4 CLIMB
2026-05-04 10:55:03 295 410 17714 2108 -6 CLIMB
2026-05-04 10:55:33 296 417 18636 2206 -7 CLIMB
2026-05-04 10:56:03 296 423 19528 2304 -9 CLIMB
2026-05-04 10:56:33 297 430 20365 2398 -12 CLIMB
2026-05-04 10:57:03 296 435 21239 2493 -14 CLIMB
2026-05-04 10:57:33 296 440 22087 2584 -16 CLIMB
2026-05-04 10:58:03 297 446 22754 2673 -17 CLIMB
2026-05-04 10:58:33 296 447 22811 2748 -17 ENROUTE
2026-05-04 10:59:03 297 448 22812 2821 -17 ENROUTE
2026-05-04 10:59:33 297 447 22811 2892 -17 ENROUTE
2026-05-04 11:00:03 297 447 22811 2965 -17 ENROUTE
2026-05-04 11:00:33 297 447 22811 3037 -17 ENROUTE
2026-05-04 11:01:03 297 447 22828 3109 -17 ENROUTE
2026-05-04 11:01:33 297 447 22829 3181 -17 ENROUTE
2026-05-04 11:02:03 298 446 22831 3254 -17 ENROUTE
2026-05-04 11:02:33 297 446 22829 3325 -17 ENROUTE
2026-05-04 11:02:07 297 446 22828 3399 -17 ENROUTE
2026-05-04 11:02:37 298 446 22831 3473 -17 ENROUTE
2026-05-04 11:03:07 297 446 22833 3544 -17 ENROUTE
2026-05-04 11:03:37 297 446 22846 3618 -16 ENROUTE
2026-05-04 11:04:07 297 446 22846 3688 -16 ENROUTE
2026-05-04 11:04:37 297 445 22846 3760 -16 ENROUTE
2026-05-04 11:05:07 297 446 22847 3834 -16 ENROUTE
2026-05-04 11:05:37 298 446 22850 3905 -16 ENROUTE
2026-05-04 11:06:07 297 445 22852 3978 -16 ENROUTE
2026-05-04 11:06:37 297 445 22852 4051 -16 ENROUTE
2026-05-04 11:07:07 298 444 22868 4122 -15 ENROUTE
2026-05-04 11:07:37 297 444 22870 4193 -15 ENROUTE
2026-05-04 11:08:07 298 443 22874 4266 -15 ENROUTE
2026-05-04 11:08:37 297 442 22874 4338 -15 ENROUTE
2026-05-04 11:09:07 297 442 22873 4411 -15 ENROUTE
2026-05-04 11:09:37 297 442 22873 4482 -15 ENROUTE
2026-05-04 11:10:07 299 442 22522 4547 -14 DESCENT
2026-05-04 11:10:37 292 429 22026 4580 -13 DESCENT
2026-05-04 11:11:07 282 411 21541 4588 -12 DESCENT
2026-05-04 11:11:37 272 395 21055 4597 -11 DESCENT
2026-05-04 11:12:07 264 382 20563 4605 -10 DESCENT
2026-05-04 11:12:37 257 368 20069 4614 -9 DESCENT
2026-05-04 11:13:07 250 356 19574 4622 -8 DESCENT
2026-05-04 11:13:37 244 345 19081 4631 -6 DESCENT
2026-05-04 11:14:07 239 335 18591 4640 -5 DESCENT
2026-05-04 11:14:40 234 325 18045 4649 -4 DESCENT
2026-05-04 11:15:07 230 318 17597 4657 -3 DESCENT
2026-05-04 11:15:37 226 310 17101 4666 -2 DESCENT
2026-05-04 11:16:07 222 303 16608 4675 -1 DESCENT
2026-05-04 11:16:37 219 297 16110 4686 0 DESCENT
2026-05-04 11:17:07 219 294 15611 4707 0 DESCENT
2026-05-04 11:17:37 220 292 15112 4729 1 DESCENT
2026-05-04 11:18:07 220 288 14614 4744 1 DESCENT
2026-05-04 11:18:37 219 285 14116 4762 2 DESCENT
2026-05-04 11:19:07 220 282 13621 4782 3 DESCENT
2026-05-04 11:19:37 219 279 13123 4801 3 DESCENT
2026-05-04 11:20:07 220 277 12627 4824 3 DESCENT
2026-05-04 11:20:37 220 273 12126 4833 4 DESCENT
2026-05-04 11:21:07 222 267 11626 4844 4 DESCENT
2026-05-04 11:21:37 217 259 11458 4879 4 ENROUTE
2026-05-04 11:22:07 219 260 11458 4946 4 ENROUTE
2026-05-04 11:22:37 218 260 11456 5010 4 ENROUTE
2026-05-04 11:23:07 203 242 11457 5043 4 ENROUTE
2026-05-04 11:23:37 199 233 11117 5053 5 DESCENT
2026-05-04 11:24:07 200 230 10614 5063 5 DESCENT
2026-05-04 11:24:37 200 228 10126 5073 5 DESCENT
2026-05-04 11:25:07 200 226 9614 5082 6 DESCENT
2026-05-04 11:25:37 200 224 9125 5093 7 DESCENT
2026-05-04 11:26:07 200 222 8624 5102 8 DESCENT
2026-05-04 11:26:37 199 219 8123 5113 9 DESCENT
2026-05-04 11:27:07 199 217 7626 5123 10 DESCENT
2026-05-04 11:27:37 201 216 7130 5134 11 DESCENT
2026-05-04 11:28:07 202 215 6632 5144 11 DESCENT
2026-05-04 11:28:37 202 214 6133 5154 12 DESCENT
2026-05-04 11:29:07 194 204 5822 5165 13 DESCENT
2026-05-04 11:29:37 170 178 5695 5176 13 DESCENT
2026-05-04 11:30:07 163 171 5510 5216 13 DESCENT
2026-05-04 11:30:37 165 170 5324 5271 13 ENROUTE
2026-05-04 11:31:07 164 171 5311 5340 13 ENROUTE
2026-05-04 11:31:37 164 172 5312 5411 13 ENROUTE
2026-05-04 11:32:07 163 172 5309 5480 13 ENROUTE
2026-05-04 11:32:37 164 172 5313 5547 13 ENROUTE
2026-05-04 11:33:07 164 167 5309 5617 14 ENROUTE
2026-05-04 11:33:37 165 168 5315 5699 14 ENROUTE
2026-05-04 11:34:07 161 167 5311 5782 13 ENROUTE
2026-05-04 11:34:37 164 171 5319 5869 13 ENROUTE
2026-05-04 11:35:07 163 169 5316 5950 13 ENROUTE
2026-05-04 11:35:37 164 169 5312 6035 13 ENROUTE
2026-05-04 11:36:07 164 169 5312 6118 13 ENROUTE
2026-05-04 11:36:37 163 169 5214 6193 13 DESCENT
2026-05-04 11:37:07 166 170 4968 6262 14 APPROACH
2026-05-04 11:37:37 162 169 4727 6317 14 APPROACH
2026-05-04 11:38:07 159 163 4449 6371 15 APPROACH
2026-05-04 11:38:37 165 165 4310 6441 15 APPROACH
2026-05-04 11:39:07 162 165 4287 6527 15 APPROACH
2026-05-04 11:39:37 163 168 4289 6618 15 APPROACH
2026-05-04 11:40:07 166 168 4156 6694 15 APPROACH
2026-05-04 11:40:37 165 164 3697 6739 16 APPROACH
2026-05-04 11:41:07 163 163 3266 6796 17 ON FINAL
2026-05-04 11:41:37 162 166 2844 6862 18 ON FINAL
2026-05-04 11:42:07 128 130 2757 6917 18 ON FINAL
2026-05-04 11:42:37 37 33 2755 6950 18 ON FINAL
2026-05-04 11:43:07 17 14 2756 6963 18 TAXI TO APRON
2026-05-04 11:43:37 3 10 2756 6975 18 TAXI TO APRON
2026-05-04 11:44:07 8 14 2756 6999 18 TAXI TO APRON
2026-05-04 11:44:37 11 19 2756 7048 18 TAXI TO APRON
2026-05-04 11:45:07 15 23 2756 7101 18 TAXI TO APRON
2026-05-04 11:45:37 16 23 2756 7147 18 TAXI TO APRON
2026-05-04 11:46:07 9 15 2756 7195 18 TAXI TO APRON
2026-05-04 11:46:37 7 13 2756 7242 18 TAXI TO APRON
2026-05-04 11:47:07 8 15 2756 7290 18 TAXI TO APRON
2026-05-04 11:47:37 5 12 2756 7338 18 TAXI TO APRON
2026-05-04 11:48:07 0 1 2756 7383 18 TAXI TO APRON
2026-05-04 11:48:37 0 0 2756 7426 18 TAXI TO APRON
  • Join our VA!

    It has been 11 years of great learning, friendships, and stories.

  • Sign up now!